Terminal Aerodrome Forecast
Issued by NWS Pittsburgh, PA

Current Version | Previous Version | Graphics & Text | Print | Product List | Glossary On
Versions: 1 2 3 4 5 6 7 8 9 10 11 12 13 14 15 16 17 18 19 20 21 22 23 24 25 26 27 28 29 30
000
FTUS41 KPBZ 171000 AAD
TAFPIT
TAF AMD
KPIT 171007Z 1710/1812 27006KT P6SM -RA OVC008
     FM171300 27006KT P6SM OVC015
     FM171500 27005KT P6SM BKN025
     FM171800 27005KT P6SM BKN060
     FM180700 VRB05KT P6SM BKN250=

USA.gov is the U.S. government's official web portal to all federal, state and local government web resources and services.